Time;durP1;ratioP1;P1;durP2;ratioP2;P2;SDS_P1;SDS_P2;PMS_P1;PMS_P2;Temp;Humidity;BMP_temperature;BMP_pressure;BME280_temperature;BME280_humidity;BME280_pressure;Samples;Min_cycle;Max_cycle;Signal;HPM_P1;HPM_P2
2024/02/24 00:00:29;;;;;;;4.30;1.05;;;6.20;99.90;;;;;;5082997;28;20044;-67
2024/02/24 00:02:55;;;;;;;9.77;1.33;;;6.20;99.90;;;;;;5073944;28;20028;-67
2024/02/24 00:05:25;;;;;;;5.45;1.42;;;6.20;99.90;;;;;;5076336;28;20504;-67
2024/02/24 00:07:51;;;;;;;2.63;0.88;;;6.20;99.90;;;;;;5071702;28;20036;-67
2024/02/24 00:10:16;;;;;;;4.90;1.25;;;6.20;99.90;;;;;;5060958;28;20027;-67
2024/02/24 00:12:42;;;;;;;6.30;1.20;;;6.30;99.90;;;;;;5065574;28;20040;-66
2024/02/24 00:15:08;;;;;;;4.63;0.80;;;6.30;99.90;;;;;;5074085;28;20452;-67
2024/02/24 00:17:34;;;;;;;3.45;0.90;;;6.20;99.90;;;;;;5066786;28;20043;-67
2024/02/24 00:20:00;;;;;;;2.75;0.88;;;6.20;99.90;;;;;;5085062;28;20033;-67
2024/02/24 00:22:25;;;;;;;4.45;1.40;;;6.10;99.90;;;;;;5086109;28;20032;-67
2024/02/24 00:24:51;;;;;;;8.20;1.23;;;6.10;99.90;;;;;;5083634;28;20024;-67
2024/02/24 00:27:16;;;;;;;8.38;2.17;;;6.10;99.90;;;;;;5082631;28;20036;-67
2024/02/24 00:29:42;;;;;;;6.68;1.42;;;6.10;99.90;;;;;;5079996;28;20571;-67
2024/02/24 00:32:07;;;;;;;4.10;0.98;;;6.20;99.90;;;;;;5080009;28;20032;-67
2024/02/24 00:34:33;;;;;;;8.73;1.40;;;6.10;99.90;;;;;;5081619;28;20031;-67
2024/02/24 00:36:58;;;;;;;4.53;1.08;;;6.10;99.90;;;;;;5079023;28;20036;-67
2024/02/24 00:39:24;;;;;;;4.90;1.15;;;6.20;99.90;;;;;;5084482;28;20036;-67
2024/02/24 00:41:53;;;;;;;6.28;1.00;;;6.20;99.90;;;;;;5083228;28;20443;-67
2024/02/24 00:44:18;;;;;;;4.82;0.90;;;6.20;99.90;;;;;;5085177;28;20043;-67
2024/02/24 00:46:44;;;;;;;5.18;1.45;;;6.20;99.90;;;;;;5081475;28;20028;-67
2024/02/24 00:49:09;;;;;;;2.92;1.10;;;6.20;99.90;;;;;;5074313;28;20116;-67
2024/02/24 00:51:35;;;;;;;5.22;1.13;;;6.20;99.90;;;;;;5079035;28;20510;-67
2024/02/24 00:54:01;;;;;;;6.07;0.95;;;6.20;99.90;;;;;;5084810;28;20056;-67
2024/02/24 00:56:26;;;;;;;5.25;1.00;;;6.30;99.90;;;;;;5084526;28;20037;-67
2024/02/24 00:58:52;;;;;;;7.15;0.90;;;6.30;99.90;;;;;;5081952;28;20082;-67
2024/02/24 01:01:17;;;;;;;4.50;1.08;;;6.30;99.90;;;;;;5083072;28;20028;-67
2024/02/24 01:03:43;;;;;;;4.45;1.08;;;6.20;99.90;;;;;;5068826;28;20020;-67
2024/02/24 01:06:08;;;;;;;2.50;0.60;;;6.30;99.90;;;;;;5083671;28;20553;-67
2024/02/24 01:08:34;;;;;;;6.50;1.08;;;6.30;99.90;;;;;;5088675;28;20032;-67
2024/02/24 01:11:00;;;;;;;2.08;0.80;;;6.30;99.90;;;;;;5083761;28;20063;-67
2024/02/24 01:13:25;;;;;;;5.85;1.02;;;6.30;99.90;;;;;;5088092;28;20036;-67
2024/02/24 01:15:51;;;;;;;6.55;1.10;;;6.30;99.90;;;;;;5062350;28;20427;-67
2024/02/24 01:18:16;;;;;;;2.47;0.80;;;6.30;99.90;;;;;;5061151;28;20032;-67
2024/02/24 01:20:48;;;;;;;3.95;0.85;;;6.30;99.90;;;;;;5083837;28;20051;-67
2024/02/24 01:23:14;;;;;;;2.35;0.93;;;6.40;99.90;;;;;;5076670;28;19930;-67
2024/02/24 01:25:40;;;;;;;4.32;0.88;;;6.30;99.90;;;;;;5085877;28;20120;-67
2024/02/24 01:28:05;;;;;;;7.05;0.95;;;6.30;99.90;;;;;;5084256;28;20131;-67
2024/02/24 01:30:31;;;;;;;3.53;1.20;;;6.30;99.90;;;;;;5081584;28;20039;-67
2024/02/24 01:32:57;;;;;;;9.25;1.10;;;6.30;99.90;;;;;;5078419;28;20039;-67
2024/02/24 01:35:22;;;;;;;3.60;0.80;;;6.40;99.90;;;;;;5077855;28;20032;-67
2024/02/24 01:37:48;;;;;;;4.90;0.85;;;6.30;99.90;;;;;;5079662;28;20538;-67
2024/02/24 01:40:13;;;;;;;3.58;1.10;;;6.30;99.90;;;;;;5084591;28;20148;-67
2024/02/24 01:42:42;;;;;;;3.63;0.95;;;6.30;99.90;;;;;;5082924;28;20455;-67
2024/02/24 01:45:08;;;;;;;5.60;0.90;;;6.30;99.90;;;;;;5079737;28;20040;-67
2024/02/24 01:47:34;;;;;;;7.05;0.88;;;6.30;99.90;;;;;;5082851;28;20047;-67
2024/02/24 01:50:00;;;;;;;7.35;1.00;;;6.30;99.90;;;;;;5074394;28;20028;-67
2024/02/24 01:52:26;;;;;;;6.45;1.35;;;6.30;99.90;;;;;;5062282;28;20074;-67
2024/02/24 01:54:56;;;;;;;3.58;0.70;;;6.30;99.90;;;;;;5083480;28;20020;-67
2024/02/24 01:57:25;;;;;;;7.20;1.52;;;6.20;99.90;;;;;;5063509;28;20457;-67
2024/02/24 01:59:51;;;;;;;6.50;1.05;;;6.20;99.90;;;;;;5065248;28;20113;-67
2024/02/24 02:02:16;;;;;;;6.05;1.00;;;6.20;99.90;;;;;;5075455;28;20409;-67
2024/02/24 02:04:42;;;;;;;3.80;1.15;;;6.20;99.90;;;;;;5065950;28;20020;-67
2024/02/24 02:07:07;;;;;;;4.00;0.68;;;6.20;99.90;;;;;;5082919;28;20050;-67
2024/02/24 02:09:33;;;;;;;7.85;1.17;;;6.20;99.90;;;;;;5068141;28;20040;-67
2024/02/24 02:11:58;;;;;;;8.13;1.08;;;6.10;99.90;;;;;;5066742;28;20036;-67
2024/02/24 02:14:24;;;;;;;4.32;0.90;;;6.10;99.90;;;;;;5061162;28;20043;-67
2024/02/24 02:16:50;;;;;;;3.33;0.60;;;6.00;99.90;;;;;;5067552;28;20510;-67
2024/02/24 02:19:15;;;;;;;2.97;1.20;;;6.10;99.90;;;;;;5082909;28;20089;-67
2024/02/24 02:21:43;;;;;;;3.42;1.00;;;6.10;99.90;;;;;;5087178;28;20055;-67
2024/02/24 02:24:10;;;;;;;3.20;1.02;;;6.00;99.90;;;;;;5082051;28;20040;-67
2024/02/24 02:26:37;;;;;;;3.42;0.90;;;6.00;99.90;;;;;;5079944;28;20036;-67
2024/02/24 02:29:02;;;;;;;4.85;0.65;;;6.00;99.90;;;;;;5077126;28;20112;-67
2024/02/24 02:31:28;;;;;;;5.25;0.90;;;6.00;99.90;;;;;;5074650;28;20022;-67
2024/02/24 02:33:53;;;;;;;2.85;0.98;;;5.90;99.90;;;;;;5074988;28;20044;-67
2024/02/24 02:36:19;;;;;;;6.18;1.00;;;5.90;99.90;;;;;;5074325;28;20624;-68
2024/02/24 02:38:44;;;;;;;2.72;1.05;;;5.80;99.90;;;;;;5080980;28;20056;-67
2024/02/24 02:41:10;;;;;;;2.65;1.10;;;5.80;99.90;;;;;;5078754;28;20050;-67
2024/02/24 02:43:35;;;;;;;4.22;0.73;;;5.80;99.90;;;;;;5073586;28;20551;-67
2024/02/24 02:46:01;;;;;;;3.47;0.82;;;5.80;99.90;;;;;;5076163;28;20039;-67
2024/02/24 02:48:27;;;;;;;5.22;0.90;;;5.80;99.90;;;;;;5072950;28;20032;-67
2024/02/24 02:50:52;;;;;;;3.15;0.90;;;5.70;99.90;;;;;;5078419;28;20682;-67
2024/02/24 02:53:18;;;;;;;3.28;0.65;;;5.70;99.90;;;;;;5075004;28;20083;-67
2024/02/24 02:55:43;;;;;;;3.70;0.85;;;5.70;99.90;;;;;;5080159;28;20036;-67
2024/02/24 02:58:11;;;;;;;3.47;0.82;;;5.70;99.90;;;;;;5077891;28;20036;-67
2024/02/24 03:00:37;;;;;;;3.20;0.95;;;5.70;99.90;;;;;;5075197;28;20028;-68
2024/02/24 03:03:02;;;;;;;6.60;1.20;;;5.70;99.90;;;;;;5075868;28;20587;-67
2024/02/24 03:05:28;;;;;;;3.67;0.85;;;5.60;99.90;;;;;;5086074;28;20040;-67
2024/02/24 03:07:53;;;;;;;7.60;1.05;;;5.60;99.90;;;;;;5060989;28;20063;-67
2024/02/24 03:10:19;;;;;;;6.13;1.17;;;5.60;99.90;;;;;;5073980;28;20515;-67
2024/02/24 03:12:45;;;;;;;2.22;0.77;;;5.50;99.90;;;;;;5088171;28;20031;-67
2024/02/24 03:15:10;;;;;;;3.85;1.00;;;5.50;99.90;;;;;;5082261;28;20032;-67
2024/02/24 03:17:36;;;;;;;2.58;0.82;;;5.50;99.90;;;;;;5083252;28;21032;-66
2024/02/24 03:20:03;;;;;;;2.53;0.98;;;5.50;99.90;;;;;;5076603;28;20127;-67
2024/02/24 03:22:33;;;;;;;2.35;0.80;;;5.50;99.90;;;;;;5074061;28;20041;-67
2024/02/24 03:24:58;;;;;;;5.97;1.00;;;5.50;99.90;;;;;;5079608;28;20070;-67
2024/02/24 03:27:24;;;;;;;8.30;1.25;;;5.40;99.90;;;;;;5080754;28;20145;-67
2024/02/24 03:29:50;;;;;;;3.15;1.08;;;5.30;99.90;;;;;;5074697;28;20028;-67
2024/02/24 03:32:15;;;;;;;2.67;1.33;;;5.30;99.90;;;;;;5078422;28;20051;-67
2024/02/24 03:34:41;;;;;;;4.57;0.98;;;5.20;99.90;;;;;;5077378;28;20548;-67
2024/02/24 03:37:06;;;;;;;1.48;0.90;;;5.20;99.90;;;;;;5077496;28;20024;-67
2024/02/24 03:39:32;;;;;;;8.55;1.00;;;5.20;99.90;;;;;;5078616;28;20170;-67
2024/02/24 03:41:58;;;;;;;11.00;1.40;;;5.20;99.90;;;;;;5077879;28;20029;-67
2024/02/24 03:44:23;;;;;;;2.55;0.77;;;5.20;99.90;;;;;;5076453;28;20108;-67
2024/02/24 03:46:49;;;;;;;5.07;0.90;;;5.20;99.90;;;;;;5079742;28;20047;-67
2024/02/24 03:49:15;;;;;;;3.08;0.90;;;5.20;99.90;;;;;;5073008;28;20025;-67
2024/02/24 03:51:40;;;;;;;3.22;0.95;;;5.10;99.90;;;;;;5079618;28;20020;-67
2024/02/24 03:54:06;;;;;;;5.65;0.90;;;5.10;99.90;;;;;;5078575;28;20031;-67
2024/02/24 03:56:31;;;;;;;6.60;1.42;;;5.10;99.90;;;;;;5081135;28;20029;-67
2024/02/24 03:58:57;;;;;;;9.43;1.63;;;5.10;99.90;;;;;;5058029;28;20074;-67
2024/02/24 04:01:22;;;;;;;4.57;1.20;;;5.00;99.90;;;;;;5075201;28;20021;-67
2024/02/24 04:03:48;;;;;;;4.53;0.95;;;5.10;99.90;;;;;;5078574;28;20802;-67
2024/02/24 04:06:15;;;;;;;4.93;1.00;;;5.00;99.90;;;;;;5082275;28;20045;-67
2024/02/24 04:08:41;;;;;;;3.00;1.00;;;5.00;99.90;;;;;;5080274;28;20044;-67
2024/02/24 04:11:07;;;;;;;5.88;0.77;;;4.90;99.90;;;;;;5074868;28;20046;-67
2024/02/24 04:13:32;;;;;;;3.95;0.95;;;4.90;99.90;;;;;;5080732;28;20405;-67
2024/02/24 04:15:58;;;;;;;3.45;0.80;;;5.00;99.90;;;;;;5079050;28;20071;-67
2024/02/24 04:18:23;;;;;;;2.70;0.80;;;5.00;99.90;;;;;;5078942;28;20040;-67
2024/02/24 04:20:49;;;;;;;5.15;1.20;;;5.00;99.90;;;;;;5061038;28;20496;-67
2024/02/24 04:23:14;;;;;;;3.55;1.58;;;5.10;99.90;;;;;;5063268;28;20048;-67
2024/02/24 04:25:40;;;;;;;1.25;0.80;;;5.10;99.90;;;;;;5078146;28;20036;-67
2024/02/24 04:28:06;;;;;;;6.03;1.00;;;5.10;99.90;;;;;;5080146;28;20577;-67
2024/02/24 04:30:31;;;;;;;7.90;1.15;;;5.10;99.90;;;;;;5076570;28;20036;-67
2024/02/24 04:32:57;;;;;;;4.35;0.85;;;5.10;99.90;;;;;;5076472;28;20503;-66
2024/02/24 04:35:25;;;;;;;3.45;0.88;;;5.20;99.90;;;;;;5061483;28;20131;-67
2024/02/24 04:37:51;;;;;;;6.53;1.58;;;5.20;99.90;;;;;;5068519;28;20028;-67
2024/02/24 04:40:17;;;;;;;7.07;0.70;;;5.20;99.90;;;;;;5062525;28;20034;-66
2024/02/24 04:42:42;;;;;;;7.15;1.88;;;5.20;99.90;;;;;;5078883;28;20076;-67
2024/02/24 04:45:08;;;;;;;1.55;0.75;;;5.20;99.90;;;;;;5073295;28;20040;-67
2024/02/24 04:47:34;;;;;;;3.05;0.80;;;5.30;99.90;;;;;;5076759;28;20373;-67
2024/02/24 04:50:00;;;;;;;6.35;0.88;;;5.30;99.90;;;;;;5076834;28;20048;-67
2024/02/24 04:52:27;;;;;;;1.25;0.70;;;5.30;99.90;;;;;;5081003;28;20033;-67
2024/02/24 04:54:52;;;;;;;2.45;0.80;;;5.30;99.90;;;;;;5075733;28;20503;-67
2024/02/24 04:57:18;;;;;;;4.55;0.90;;;5.30;99.90;;;;;;5079978;28;20033;-67
2024/02/24 04:59:44;;;;;;;5.45;0.85;;;5.20;99.90;;;;;;5067286;28;20054;-67
2024/02/24 05:02:09;;;;;;;2.10;0.50;;;5.20;99.90;;;;;;5073574;28;20029;-67
2024/02/24 05:04:35;;;;;;;6.40;0.98;;;5.20;99.90;;;;;;5057707;28;20033;-67
2024/02/24 05:07:00;;;;;;;4.05;1.02;;;5.10;99.90;;;;;;5076217;28;20024;-67
2024/02/24 05:09:26;;;;;;;2.00;0.77;;;5.10;99.90;;;;;;5076699;28;20093;-67
2024/02/24 05:11:51;;;;;;;3.63;1.20;;;5.10;99.90;;;;;;5078174;28;20034;-67
2024/02/24 05:14:18;;;;;;;1.98;0.73;;;5.10;99.90;;;;;;5059201;28;20040;-67
2024/02/24 05:16:44;;;;;;;2.75;1.00;;;5.20;99.90;;;;;;5079134;28;20135;-67
2024/02/24 05:19:09;;;;;;;5.97;1.05;;;5.20;99.90;;;;;;5086848;28;20028;-67
2024/02/24 05:21:35;;;;;;;8.48;1.17;;;5.20;99.90;;;;;;5085638;28;20024;-67
2024/02/24 05:24:01;;;;;;;2.28;0.88;;;5.10;99.90;;;;;;5076223;28;20123;-67
2024/02/24 05:26:28;;;;;;;4.85;1.55;;;5.10;99.90;;;;;;5083024;28;20048;-67
2024/02/24 05:28:54;;;;;;;8.03;1.53;;;5.10;99.90;;;;;;5085544;28;20082;-67
2024/02/24 05:31:20;;;;;;;8.55;1.38;;;5.10;99.90;;;;;;5081306;28;20116;-67
2024/02/24 05:33:47;;;;;;;5.65;1.17;;;5.10;99.90;;;;;;5082099;28;20100;-67
2024/02/24 05:36:16;;;;;;;2.97;0.67;;;5.20;99.90;;;;;;5078192;28;20028;-67
2024/02/24 05:38:42;;;;;;;8.02;1.02;;;5.20;99.90;;;;;;5083780;28;20413;-67
2024/02/24 05:41:08;;;;;;;5.32;1.15;;;5.10;99.90;;;;;;5080836;28;20029;-67
2024/02/24 05:43:34;;;;;;;4.00;1.10;;;5.10;99.90;;;;;;5077453;28;20673;-67
2024/02/24 05:46:03;;;;;;;2.60;0.70;;;5.10;99.90;;;;;;5080155;28;20031;-67
2024/02/24 05:48:31;;;;;;;5.68;0.93;;;5.20;99.90;;;;;;5081563;28;20032;-67
2024/02/24 05:50:57;;;;;;;1.40;0.73;;;5.20;99.90;;;;;;5080961;28;20055;-67
2024/02/24 05:53:23;;;;;;;5.82;1.20;;;5.20;99.90;;;;;;5079513;28;20111;-67
2024/02/24 05:55:49;;;;;;;6.57;1.20;;;5.20;99.90;;;;;;5086189;28;20028;-67
2024/02/24 05:58:15;;;;;;;7.40;1.10;;;5.20;99.90;;;;;;5083090;28;20081;-67
2024/02/24 06:00:41;;;;;;;3.53;1.20;;;5.30;99.90;;;;;;5068117;28;20042;-67
2024/02/24 06:03:10;;;;;;;2.88;0.90;;;5.20;99.90;;;;;;5081678;28;20036;-67
2024/02/24 06:05:36;;;;;;;1.52;0.73;;;5.20;99.90;;;;;;5077523;28;20033;-67
2024/02/24 06:08:02;;;;;;;3.00;1.33;;;5.30;99.90;;;;;;5082606;28;20047;-67
2024/02/24 06:10:27;;;;;;;;;;;5.30;99.90;;;;;;5076833;28;19912;-67
2024/02/24 06:12:53;;;;;;;3.85;1.27;;;5.30;99.90;;;;;;5075003;28;19918;-67
2024/02/24 06:15:18;;;;;;;2.38;0.95;;;5.30;99.90;;;;;;5061113;28;20036;-67
2024/02/24 06:17:44;;;;;;;6.32;1.10;;;5.30;99.90;;;;;;5084165;28;20036;-67
2024/02/24 06:20:10;;;;;;;6.13;1.30;;;5.30;99.90;;;;;;5079670;28;20559;-67
2024/02/24 06:22:36;;;;;;;5.80;1.38;;;5.30;99.90;;;;;;5082804;28;20040;-67
2024/02/24 06:25:01;;;;;;;4.13;1.00;;;5.30;99.90;;;;;;5080206;28;20089;-67
2024/02/24 06:27:29;;;;;;;7.15;1.15;;;5.40;99.90;;;;;;5081343;28;20520;-67
2024/02/24 06:29:55;;;;;;;5.28;0.85;;;5.40;99.90;;;;;;5077792;28;20032;-67
2024/02/24 06:32:20;;;;;;;6.80;1.15;;;5.40;99.90;;;;;;5063390;28;20086;-67
2024/02/24 06:34:46;;;;;;;4.45;1.13;;;5.40;99.90;;;;;;5079014;28;20536;-67
2024/02/24 06:37:11;;;;;;;3.70;0.75;;;5.50;99.90;;;;;;5058878;28;20089;-67
2024/02/24 06:39:37;;;;;;;2.30;1.13;;;5.50;99.90;;;;;;5080155;28;20480;-67
2024/02/24 06:42:03;;;;;;;7.18;1.33;;;5.50;99.90;;;;;;5075122;28;20039;-67
2024/02/24 06:44:29;;;;;;;4.10;0.90;;;5.60;99.90;;;;;;5080841;28;20035;-67
2024/02/24 06:46:55;;;;;;;3.53;1.23;;;5.60;99.90;;;;;;5064035;28;20020;-67
2024/02/24 06:49:20;;;;;;;3.08;1.27;;;5.60;99.90;;;;;;5075858;28;20077;-67
2024/02/24 06:51:46;;;;;;;8.50;1.30;;;5.70;99.90;;;;;;5081503;28;20035;-67
2024/02/24 06:54:11;;;;;;;9.85;1.42;;;5.70;99.90;;;;;;5073171;28;20041;-67
2024/02/24 06:56:37;;;;;;;2.63;1.23;;;5.80;99.90;;;;;;5075342;28;20100;-67
2024/02/24 06:59:06;;;;;;;6.40;1.17;;;5.70;99.90;;;;;;5080463;28;20103;-67
2024/02/24 07:01:35;;;;;;;4.15;0.90;;;5.80;99.90;;;;;;5079486;28;20401;-66
2024/02/24 07:04:02;;;;;;;3.45;0.98;;;5.80;99.90;;;;;;5073513;28;20028;-67
2024/02/24 07:06:28;;;;;;;3.75;1.15;;;5.80;99.90;;;;;;5065475;28;20127;-67
2024/02/24 07:08:53;;;;;;;7.72;1.42;;;5.90;99.90;;;;;;5075078;28;20124;-67
2024/02/24 07:11:19;;;;;;;5.60;1.23;;;5.90;99.90;;;;;;5079258;28;20040;-67
2024/02/24 07:13:45;;;;;;;3.50;1.45;;;5.90;99.90;;;;;;5082953;28;20082;-67
2024/02/24 07:16:11;;;;;;;7.03;1.27;;;6.00;99.90;;;;;;5065919;28;20020;-67
2024/02/24 07:18:37;;;;;;;4.13;1.42;;;6.00;99.90;;;;;;5083672;28;20024;-67
2024/02/24 07:21:03;;;;;;;4.70;1.50;;;6.00;99.90;;;;;;5077741;28;20042;-67
2024/02/24 07:23:29;;;;;;;5.15;1.42;;;6.10;99.90;;;;;;5060002;28;20036;-67
2024/02/24 07:25:55;;;;;;;3.50;1.23;;;6.10;99.90;;;;;;5076830;28;20035;-67
2024/02/24 07:28:21;;;;;;;8.40;1.33;;;6.20;99.90;;;;;;5077413;28;20119;-67
2024/02/24 07:30:48;;;;;;;1.92;0.90;;;6.20;99.90;;;;;;5077227;28;20016;-67
2024/02/24 07:33:13;;;;;;;4.22;1.30;;;6.20;99.90;;;;;;5076859;28;20715;-67
2024/02/24 07:35:39;;;;;;;8.43;1.38;;;6.30;99.90;;;;;;5063263;28;20044;-67
2024/02/24 07:38:04;;;;;;;4.55;1.73;;;6.40;99.90;;;;;;5076160;28;20125;-67
2024/02/24 07:40:32;;;;;;;2.25;1.20;;;6.40;99.90;;;;;;5078011;28;20024;-67
2024/02/24 07:42:57;;;;;;;3.10;0.87;;;6.40;99.90;;;;;;5080754;28;20039;-67
2024/02/24 07:45:25;;;;;;;2.33;1.35;;;6.50;99.90;;;;;;5072413;28;20262;-67
2024/02/24 07:47:51;;;;;;;2.30;0.98;;;6.60;99.90;;;;;;5072129;28;20126;-67
2024/02/24 07:50:16;;;;;;;2.15;1.20;;;6.70;99.90;;;;;;5077988;28;20465;-67
2024/02/24 07:52:42;;;;;;;7.88;0.98;;;6.80;99.90;;;;;;5079517;28;20115;-67
2024/02/24 07:55:09;;;;;;;5.97;1.20;;;6.80;99.90;;;;;;5076728;28;20592;-67
2024/02/24 07:57:35;;;;;;;3.47;1.10;;;6.90;99.90;;;;;;5073928;28;20191;-67
2024/02/24 08:00:01;;;;;;;5.68;1.10;;;6.90;99.90;;;;;;5077889;28;20560;-67
2024/02/24 08:02:26;;;;;;;4.38;1.20;;;7.00;99.90;;;;;;5064934;28;20105;-67
2024/02/24 08:04:52;;;;;;;3.15;1.20;;;7.00;99.90;;;;;;5065139;28;20036;-67
2024/02/24 08:07:18;;;;;;;5.55;1.02;;;7.00;99.90;;;;;;5081037;28;20525;-67
2024/02/24 08:09:43;;;;;;;6.97;1.10;;;7.10;99.90;;;;;;5062439;28;20020;-67
2024/02/24 08:12:09;;;;;;;9.65;1.10;;;7.10;99.90;;;;;;5078180;28;20410;-67
2024/02/24 08:14:35;;;;;;;6.78;1.38;;;7.10;99.90;;;;;;5075097;28;20102;-67
2024/02/24 08:17:00;;;;;;;6.20;1.40;;;7.10;99.90;;;;;;5076136;28;20109;-67
2024/02/24 08:19:26;;;;;;;5.55;1.20;;;7.10;99.90;;;;;;5082417;28;20614;-67
2024/02/24 08:21:52;;;;;;;9.55;1.17;;;7.20;99.90;;;;;;5079039;28;20032;-67
2024/02/24 08:24:17;;;;;;;7.90;1.10;;;7.10;99.90;;;;;;5062085;28;20397;-67
2024/02/24 08:26:45;;;;;;;4.63;1.42;;;7.20;99.90;;;;;;5075032;28;20406;-68
2024/02/24 08:29:11;;;;;;;4.45;1.08;;;7.20;99.90;;;;;;5082312;28;20124;-67
2024/02/24 08:31:37;;;;;;;5.40;1.20;;;7.30;99.90;;;;;;5077387;28;20097;-67
2024/02/24 08:34:03;;;;;;;6.78;1.05;;;7.40;99.90;;;;;;5077543;28;20488;-67
2024/02/24 08:36:29;;;;;;;5.13;1.00;;;7.40;99.90;;;;;;5080122;28;20043;-67
2024/02/24 08:38:56;;;;;;;2.63;1.10;;;7.50;99.90;;;;;;5071697;28;20105;-67
2024/02/24 08:41:22;;;;;;;4.82;1.65;;;7.60;99.90;;;;;;5079239;28;20035;-67
2024/02/24 08:43:48;;;;;;;6.07;0.98;;;7.70;99.90;;;;;;5070222;28;20512;-67
2024/02/24 08:46:14;;;;;;;3.83;1.02;;;7.80;99.90;;;;;;5075267;28;20054;-68
2024/02/24 08:48:39;;;;;;;6.10;1.15;;;7.90;99.90;;;;;;5060396;28;20020;-66
2024/02/24 08:51:05;;;;;;;7.28;1.15;;;8.00;99.90;;;;;;5077998;28;20170;-66
2024/02/24 08:53:31;;;;;;;2.42;0.98;;;7.90;99.90;;;;;;5080364;28;20408;-66
2024/02/24 08:56:00;;;;;;;1.98;0.80;;;7.90;99.90;;;;;;5080913;28;20566;-66
2024/02/24 08:58:25;;;;;;;3.13;0.90;;;7.90;99.90;;;;;;5086328;28;20115;-66
2024/02/24 09:00:54;;;;;;;3.03;1.05;;;7.90;99.90;;;;;;5085449;28;20540;-67
2024/02/24 09:03:20;;;;;;;11.70;1.15;;;7.90;99.90;;;;;;5078631;28;20063;-66
2024/02/24 09:05:45;;;;;;;3.03;0.80;;;7.90;99.90;;;;;;5079596;28;20038;-66
2024/02/24 09:08:11;;;;;;;3.17;1.00;;;7.90;99.90;;;;;;5082269;28;20045;-66
2024/02/24 09:10:37;;;;;;;5.70;1.10;;;8.00;99.90;;;;;;5082873;28;20112;-67
2024/02/24 09:13:02;;;;;;;8.25;1.88;;;8.00;99.90;;;;;;5064297;28;20036;-66
2024/02/24 09:15:28;;;;;;;2.70;1.10;;;8.10;99.90;;;;;;5079791;28;20037;-66
2024/02/24 09:17:55;;;;;;;3.95;1.10;;;8.10;99.90;;;;;;5082189;28;20040;-66
2024/02/24 09:20:21;;;;;;;2.55;1.25;;;8.20;99.90;;;;;;5083480;28;20101;-66
2024/02/24 09:22:49;;;;;;;5.47;1.20;;;8.30;99.90;;;;;;5080572;28;20029;-66
2024/02/24 09:25:15;;;;;;;4.85;0.95;;;8.40;99.90;;;;;;5079570;28;20109;-66
2024/02/24 09:27:44;;;;;;;3.83;1.10;;;8.50;99.90;;;;;;5084409;28;20386;-66
2024/02/24 09:30:10;;;;;;;2.90;1.13;;;8.60;99.90;;;;;;5081753;28;20078;-67
2024/02/24 09:32:37;;;;;;;0.90;0.55;;;8.70;99.90;;;;;;5078864;28;20098;-67
2024/02/24 09:35:03;;;;;;;5.00;1.20;;;8.80;99.90;;;;;;5062973;28;20427;-66
2024/02/24 09:37:29;;;;;;;4.18;0.98;;;8.90;99.90;;;;;;5084411;28;20020;-67
2024/02/24 09:39:55;;;;;;;1.95;0.75;;;9.10;99.90;;;;;;5079718;28;20042;-66
2024/02/24 09:42:27;;;;;;;1.55;0.70;;;9.10;99.90;;;;;;5079267;28;20544;-66
2024/02/24 09:44:58;;;;;;;5.95;1.27;;;9.20;99.90;;;;;;5078167;28;20389;-66
2024/02/24 09:47:24;;;;;;;2.33;0.73;;;9.40;99.90;;;;;;5067534;28;20051;-66
2024/02/24 09:49:52;;;;;;;4.07;1.20;;;9.50;99.90;;;;;;5083604;28;20055;-66
2024/02/24 09:52:18;;;;;;;2.28;0.80;;;9.60;99.90;;;;;;5075208;28;20042;-66
2024/02/24 09:54:43;;;;;;;1.50;0.82;;;9.70;99.90;;;;;;5079582;28;20111;-67
2024/02/24 09:57:13;;;;;;;2.17;1.00;;;9.70;99.80;;;;;;5078872;28;20024;-67
2024/02/24 09:59:38;;;;;;;2.55;0.90;;;9.80;99.70;;;;;;5080244;28;20032;-67
2024/02/24 10:02:04;;;;;;;1.92;0.82;;;9.80;99.40;;;;;;5080528;28;20032;-67
2024/02/24 10:04:30;;;;;;;3.30;1.00;;;9.80;99.50;;;;;;5078395;28;20033;-66
2024/02/24 10:06:56;;;;;;;2.75;0.75;;;9.90;99.70;;;;;;5080504;28;20559;-67
2024/02/24 10:09:21;;;;;;;1.50;0.80;;;9.90;99.40;;;;;;5080816;28;20029;-67
2024/02/24 10:11:47;;;;;;;5.00;1.27;;;10.00;98.90;;;;;;5078705;28;20032;-67
2024/02/24 10:14:13;;;;;;;2.55;1.05;;;10.10;98.80;;;;;;5066294;28;20082;-68
2024/02/24 10:16:39;;;;;;;2.03;0.77;;;10.30;98.90;;;;;;5074555;28;20036;-67
2024/02/24 10:19:06;;;;;;;3.58;1.08;;;10.30;98.50;;;;;;5078523;28;20064;-67
2024/02/24 10:21:32;;;;;;;2.67;0.90;;;10.50;98.60;;;;;;5079658;28;20512;-68
2024/02/24 10:23:58;;;;;;;2.90;1.13;;;10.60;98.20;;;;;;5075228;28;20036;-67
2024/02/24 10:26:24;;;;;;;4.47;0.80;;;10.70;98.10;;;;;;5078835;28;20802;-67
2024/02/24 10:28:50;;;;;;;6.95;0.85;;;10.90;97.80;;;;;;5083060;28;20040;-69
2024/02/24 10:31:16;;;;;;;4.47;0.60;;;11.00;97.50;;;;;;5062669;28;20043;-67
2024/02/24 10:33:42;;;;;;;2.60;1.10;;;10.80;97.00;;;;;;5076374;28;20020;-70
2024/02/24 10:36:09;;;;;;;1.02;0.50;;;10.70;97.30;;;;;;5072342;28;20036;-68
2024/02/24 10:38:38;;;;;;;1.13;0.63;;;10.80;97.10;;;;;;5065060;28;20059;-66
2024/02/24 10:41:04;;;;;;;1.38;0.70;;;10.80;97.30;;;;;;5079209;28;20044;-65
2024/02/24 10:43:31;;;;;;;5.65;1.00;;;10.80;97.30;;;;;;5075671;28;20040;-68
2024/02/24 10:45:56;;;;;;;11.18;3.25;;;10.80;97.30;;;;;;5075442;28;20036;-68
2024/02/24 10:48:22;;;;;;;3.30;1.30;;;10.70;97.40;;;;;;5071942;28;20036;-62
2024/02/24 10:50:48;;;;;;;1.50;0.90;;;10.60;97.40;;;;;;5082062;28;20036;-68
2024/02/24 10:53:19;;;;;;;4.32;0.93;;;10.60;97.60;;;;;;5073964;28;20064;-68
2024/02/24 10:55:45;;;;;;;5.38;1.10;;;10.50;97.70;;;;;;5064572;28;20071;-67
2024/02/24 10:58:19;;;;;;;5.85;1.42;;;10.70;98.10;;;;;;5080794;28;20043;-68
2024/02/24 11:00:44;;;;;;;5.20;1.00;;;10.80;97.70;;;;;;5078372;28;20024;-69
2024/02/24 11:03:13;;;;;;;1.65;0.90;;;10.70;97.50;;;;;;5074415;28;20405;-69
2024/02/24 11:05:45;;;;;;;9.23;1.20;;;10.80;97.60;;;;;;5060255;28;20042;-64
2024/02/24 11:08:37;;;;;;;6.55;1.10;;;10.80;97.40;;;;;;5077009;28;20063;-66
2024/02/24 11:11:04;;;;;;;4.65;1.00;;;10.80;97.40;;;;;;5077699;28;20028;-68
2024/02/24 11:13:29;;;;;;;5.10;1.10;;;10.80;97.30;;;;;;5080347;28;20051;-66
2024/02/24 11:15:55;;;;;;;4.10;1.55;;;10.90;97.20;;;;;;5077176;28;20040;-66
2024/02/24 11:18:49;;;;;;;2.00;0.90;;;10.80;97.00;;;;;;5069601;28;20070;-67
2024/02/24 11:21:19;;;;;;;3.95;1.20;;;10.90;97.20;;;;;;5072657;28;20028;-67
2024/02/24 11:23:47;;;;;;;2.33;0.80;;;10.90;96.90;;;;;;5075945;28;20074;-68
2024/02/24 11:26:16;;;;;;;4.63;1.13;;;10.90;97.20;;;;;;5075213;28;20056;-68
2024/02/24 11:28:59;;;;;;;3.63;1.17;;;10.90;96.90;;;;;;5074619;28;20035;-68
2024/02/24 11:31:29;;;;;;;3.17;1.17;;;10.80;96.80;;;;;;5078232;28;20166;-68
2024/02/24 11:34:05;;;;;;;2.70;0.90;;;10.80;96.80;;;;;;5079029;28;20036;-67
2024/02/24 11:36:33;;;;;;;2.47;0.95;;;10.80;96.70;;;;;;5081529;28;20024;-67
2024/02/24 11:38:59;;;;;;;3.45;1.00;;;11.00;96.80;;;;;;5077895;28;20032;-68
2024/02/24 11:41:31;;;;;;;3.75;1.10;;;11.00;96.70;;;;;;5078419;28;20504;-68
2024/02/24 11:43:56;;;;;;;1.10;0.90;;;11.20;96.70;;;;;;5077553;28;20128;-67
2024/02/24 11:46:23;;;;;;;4.63;0.85;;;11.40;96.80;;;;;;5074561;28;20107;-68
2024/02/24 11:48:54;;;;;;;3.60;0.90;;;11.30;96.30;;;;;;5074686;28;20080;-67
2024/02/24 11:51:24;;;;;;;1.35;0.88;;;11.30;96.40;;;;;;5081810;28;20090;-68
2024/02/24 11:53:51;;;;;;;5.35;1.13;;;11.70;96.40;;;;;;5077738;28;20036;-67
2024/02/24 11:56:17;;;;;;;2.25;1.02;;;11.70;96.10;;;;;;5074496;28;20040;-68
2024/02/24 11:58:43;;;;;;;4.93;1.17;;;11.40;95.90;;;;;;5057134;28;20488;-64
2024/02/24 12:01:11;;;;;;;2.25;1.00;;;11.40;96.00;;;;;;5078826;28;20079;-68
2024/02/24 12:03:37;;;;;;;;;;;11.10;95.70;;;;;;5082838;28;20078;-68
2024/02/24 12:06:03;;;;;;;3.22;0.90;;;11.20;96.00;;;;;;5076314;28;19942;-67
2024/02/24 12:08:30;;;;;;;2.78;1.00;;;11.10;96.10;;;;;;5076488;28;20044;-68
2024/02/24 12:10:55;;;;;;;3.33;1.00;;;11.10;96.00;;;;;;5064805;28;20054;-67
2024/02/24 12:13:21;;;;;;;3.38;1.17;;;11.10;95.90;;;;;;5074559;28;20504;-68
2024/02/24 12:15:47;;;;;;;2.20;0.85;;;11.00;95.90;;;;;;5072905;28;20023;-68
2024/02/24 12:18:13;;;;;;;2.03;0.70;;;10.90;95.90;;;;;;5062388;28;20063;-67
2024/02/24 12:20:43;;;;;;;1.77;0.70;;;10.90;96.00;;;;;;5061696;28;20032;-68
2024/02/24 12:23:10;;;;;;;3.40;0.70;;;10.80;95.90;;;;;;5076863;28;20064;-67
2024/02/24 12:25:37;;;;;;;1.05;0.40;;;10.70;95.90;;;;;;5078840;28;20037;-67
2024/02/24 12:28:04;;;;;;;0.98;0.40;;;10.70;95.60;;;;;;5075749;28;20033;-68
2024/02/24 12:30:37;;;;;;;0.40;0.22;;;10.60;95.80;;;;;;5076156;28;20039;-68
2024/02/24 12:33:04;;;;;;;2.03;0.60;;;10.60;96.00;;;;;;5066206;28;20093;-68
2024/02/24 12:35:30;;;;;;;1.13;0.60;;;10.40;95.90;;;;;;5077426;28;20028;-67
2024/02/24 12:37:56;;;;;;;1.00;0.60;;;10.30;96.30;;;;;;5078061;28;20496;-67
2024/02/24 12:40:35;;;;;;;1.55;0.90;;;10.30;96.50;;;;;;5065755;28;20040;-68
2024/02/24 12:43:03;;;;;;;4.10;0.82;;;10.10;97.20;;;;;;5074789;28;20111;-65
2024/02/24 12:45:29;;;;;;;2.67;0.90;;;9.80;98.40;;;;;;5073790;28;20420;-65
2024/02/24 12:47:55;;;;;;;6.35;0.70;;;9.80;99.00;;;;;;5075486;28;20020;-66
2024/02/24 12:50:23;;;;;;;4.40;0.90;;;9.70;99.50;;;;;;5065556;28;20515;-65